createdAt,value
2019-02-18T00:03:54.068Z,26.76
2019-02-18T00:09:49.084Z,25.94
2019-02-18T00:15:44.087Z,26.04
2019-02-18T00:21:39.067Z,26.23
2019-02-18T00:27:34.076Z,26.7
2019-02-18T00:33:29.089Z,27.7
2019-02-18T00:39:24.106Z,28.5
2019-02-18T00:45:19.119Z,27.86
2019-02-18T00:51:14.086Z,27.08
2019-02-18T00:57:09.166Z,28.99
2019-02-18T01:03:04.118Z,33.21
2019-02-18T01:08:59.107Z,28.13
2019-02-18T01:14:54.176Z,27.39
2019-02-18T01:20:49.107Z,27.91
2019-02-18T01:26:44.212Z,28.23
2019-02-18T01:32:39.111Z,27.91
2019-02-18T01:38:34.114Z,26.82
2019-02-18T01:44:29.152Z,27.08
2019-02-18T01:50:24.122Z,25.77
2019-02-18T01:56:19.131Z,27.51
2019-02-18T02:02:14.145Z,29.14
2019-02-18T02:08:09.128Z,27.11
2019-02-18T02:14:04.163Z,26.5
2019-02-18T02:19:59.194Z,27.47
2019-02-18T02:25:54.160Z,26.09
2019-02-18T02:31:49.168Z,26.85
2019-02-18T02:37:44.141Z,28.27
2019-02-18T02:43:39.162Z,29.03
2019-02-18T02:49:34.173Z,29.17
2019-02-18T02:55:29.199Z,29.08
2019-02-18T03:01:24.185Z,27.32
2019-02-18T03:07:19.201Z,27.65
2019-02-18T03:13:14.180Z,26.29
2019-02-18T03:19:09.170Z,26.24
2019-02-18T03:25:04.191Z,33.43
2019-02-18T03:30:59.199Z,32.34
2019-02-18T03:36:54.167Z,34.17
2019-02-18T03:42:49.199Z,31.46
2019-02-18T03:48:44.269Z,31.58
2019-02-18T03:54:39.247Z,28.94
2019-02-18T04:00:34.192Z,30.97
2019-02-18T04:06:29.187Z,29
2019-02-18T04:12:24.225Z,29.91
2019-02-18T04:18:19.234Z,31.98
2019-02-18T04:24:14.250Z,30.5
2019-02-18T04:30:09.227Z,29.2
2019-02-18T04:36:04.201Z,30.42
2019-02-18T04:41:59.209Z,29.16
2019-02-18T04:47:54.230Z,30.34
2019-02-18T04:53:49.228Z,30.38
2019-02-18T04:59:44.214Z,29.92
2019-02-18T05:05:39.265Z,29.12
2019-02-18T05:11:34.229Z,30.14
2019-02-18T05:17:29.313Z,29.43
2019-02-18T05:23:24.242Z,28.8
2019-02-18T05:29:19.253Z,29.52
2019-02-18T05:35:14.224Z,30.83
2019-02-18T05:41:09.286Z,29.34
2019-02-18T05:47:04.256Z,28.92
2019-02-18T05:52:59.268Z,30.22
2019-02-18T05:58:54.251Z,32.24
2019-02-18T06:04:49.270Z,31.77
2019-02-18T06:10:44.248Z,33.3
2019-02-18T06:16:39.290Z,32.01
2019-02-18T06:22:34.326Z,35.55
2019-02-18T06:28:29.257Z,34.06
2019-02-18T06:34:24.277Z,34.43
2019-02-18T06:40:19.272Z,33.97
2019-02-18T06:46:14.315Z,31.92
2019-02-18T06:52:09.278Z,34.4
2019-02-18T06:58:04.295Z,37.27
2019-02-18T07:03:59.313Z,39.73
2019-02-18T07:09:54.299Z,37.26
2019-02-18T07:15:49.355Z,35.93
2019-02-18T07:21:44.329Z,32.76
2019-02-18T07:27:39.323Z,34.03
2019-02-18T07:33:34.333Z,35.1
2019-02-18T07:39:29.310Z,38.16
2019-02-18T07:45:24.317Z,46.31
2019-02-18T07:51:19.316Z,55.41
2019-02-18T07:57:14.372Z,53.53
2019-02-18T08:03:09.351Z,49.07
2019-02-18T08:09:04.321Z,47.38
2019-02-18T08:14:59.326Z,52.98
2019-02-18T08:20:54.329Z,47.53
2019-02-18T08:26:49.338Z,48.13
2019-02-18T08:32:44.344Z,52.87
2019-02-18T08:38:39.379Z,50.95
2019-02-18T08:44:34.346Z,48.17
2019-02-18T08:50:29.410Z,51
2019-02-18T08:56:24.335Z,47.87
2019-02-18T09:02:19.371Z,42.1
2019-02-18T09:08:14.418Z,40.71
2019-02-18T09:14:09.360Z,45.22
2019-02-18T09:20:04.365Z,40.93
2019-02-18T09:25:59.415Z,37.08
2019-02-18T09:31:54.385Z,37.7
2019-02-18T09:37:49.394Z,36.06
2019-02-18T09:43:44.390Z,37.43
2019-02-18T09:49:39.451Z,39.25
2019-02-18T09:55:34.388Z,30.47
2019-02-18T10:01:29.381Z,26.8
2019-02-18T10:07:24.447Z,24.08
2019-02-18T10:13:19.407Z,19.02
2019-02-18T10:19:14.387Z,22.32
2019-02-18T10:25:09.425Z,28.44
2019-02-18T10:31:04.394Z,22.32
2019-02-18T10:36:59.396Z,33.96
2019-02-18T10:42:54.423Z,26.83
2019-02-18T10:48:49.489Z,32.17
2019-02-18T10:54:44.423Z,36.22
2019-02-18T11:00:39.421Z,32.23
2019-02-18T11:06:34.404Z,39.46
2019-02-18T11:12:29.423Z,39.63
2019-02-18T11:18:24.435Z,35.82
2019-02-18T11:24:20.715Z,16.46
2019-02-18T11:30:14.488Z,35.14
2019-02-18T11:36:09.447Z,36.12
2019-02-18T11:42:04.459Z,36.5
2019-02-18T11:47:59.476Z,36.29
2019-02-18T11:53:54.445Z,33.52
2019-02-18T11:59:49.464Z,36.63
2019-02-18T12:05:44.472Z,32.45
2019-02-18T12:11:39.492Z,30.31
2019-02-18T12:17:34.453Z,36.74
2019-02-18T12:23:29.456Z,34.04
2019-02-18T12:29:26.415Z,28.97
2019-02-18T12:35:19.499Z,25.65
2019-02-18T12:41:14.467Z,78.32
2019-02-18T12:47:09.466Z,26.7
2019-02-18T12:53:04.479Z,26.01
2019-02-18T12:58:59.466Z,25.05
2019-02-18T13:04:54.478Z,22.62
2019-02-18T13:10:49.494Z,26.81
2019-02-18T13:16:44.515Z,18.54
2019-02-18T13:22:39.491Z,23.13
2019-02-18T13:28:34.546Z,18.11
2019-02-18T13:34:29.550Z,26.25
2019-02-18T13:40:24.531Z,24.84
2019-02-18T13:46:19.506Z,22.84
2019-02-18T13:52:14.552Z,21.22
2019-02-18T13:58:09.540Z,25.14
2019-02-18T14:04:04.557Z,29.25
2019-02-18T14:09:59.511Z,26.17
2019-02-18T14:15:54.519Z,22.71
2019-02-18T14:21:49.523Z,21.85
2019-02-18T14:27:44.545Z,21.91
2019-02-18T14:33:39.550Z,12.52
2019-02-18T14:39:34.539Z,18.4
2019-02-18T14:45:29.577Z,12.04
2019-02-18T14:51:24.566Z,14.53
2019-02-18T14:57:19.555Z,21.22
2019-02-18T15:03:14.548Z,21.83
2019-02-18T15:09:09.605Z,20.87
2019-02-18T15:15:04.564Z,19.95
2019-02-18T15:20:59.570Z,30.03
2019-02-18T15:26:54.551Z,27.45
2019-02-18T15:32:49.571Z,16.76
2019-02-18T15:38:44.560Z,15.9
2019-02-18T15:44:39.596Z,17.16
2019-02-18T15:50:34.567Z,16.17
2019-02-18T15:56:29.581Z,15.86
2019-02-18T16:02:24.577Z,17.01
2019-02-18T16:08:19.595Z,17.7
2019-02-18T16:14:14.591Z,15.73
2019-02-18T16:20:09.576Z,18.47
2019-02-18T16:26:04.606Z,17.81
2019-02-18T16:32:01.284Z,19.01
2019-02-18T16:37:54.607Z,19.1
2019-02-18T16:43:51.290Z,23.47
2019-02-18T16:49:44.593Z,20.36
2019-02-18T16:55:39.630Z,20.72
2019-02-18T17:01:34.616Z,26.46
2019-02-18T17:07:29.621Z,29.94
2019-02-18T17:13:24.621Z,38.37
2019-02-18T17:19:19.611Z,50.51
2019-02-18T17:25:14.656Z,58.61
2019-02-18T17:31:09.682Z,53.32
2019-02-18T17:37:04.637Z,48.02
2019-02-18T17:42:59.628Z,35.91
2019-02-18T17:48:54.672Z,45.08
2019-02-18T17:54:49.648Z,50.74
2019-02-18T18:00:44.727Z,57.58
2019-02-18T18:06:39.649Z,43.68
2019-02-18T18:12:34.681Z,32.4
2019-02-18T18:18:29.680Z,32.23
2019-02-18T18:24:24.660Z,28.2
2019-02-18T18:30:19.667Z,29.62
2019-02-18T18:36:14.697Z,24.8
2019-02-18T18:42:09.660Z,28.56
2019-02-18T18:48:04.680Z,27.8
2019-02-18T18:53:59.692Z,34.39
2019-02-18T18:59:54.678Z,36.27
2019-02-18T19:05:49.671Z,41.28
2019-02-18T19:11:44.703Z,36.73
2019-02-18T19:17:39.672Z,50.37
2019-02-18T19:23:34.675Z,27.86
2019-02-18T19:29:29.717Z,37.31
2019-02-18T19:35:24.695Z,31.24
2019-02-18T19:41:19.692Z,34.97
2019-02-18T19:47:14.713Z,25.98
2019-02-18T19:53:09.709Z,23.24
2019-02-18T19:59:04.697Z,23.34
2019-02-18T20:04:59.737Z,21.7
2019-02-18T20:10:54.714Z,20.23
2019-02-18T20:16:49.724Z,29.27
2019-02-18T20:22:44.736Z,29.09
2019-02-18T20:28:39.759Z,34.43
2019-02-18T20:34:34.737Z,36.4
2019-02-18T20:40:29.752Z,35.45
2019-02-18T20:46:24.754Z,42.38
2019-02-18T20:52:19.712Z,44.2
2019-02-18T20:58:14.770Z,33.69
2019-02-18T21:04:09.755Z,30.58
2019-02-18T21:10:04.765Z,31.95
2019-02-18T21:15:59.739Z,28.13
2019-02-18T21:21:54.754Z,26.35
2019-02-18T21:27:49.781Z,26.8
2019-02-18T21:33:44.834Z,26.75
2019-02-18T21:39:39.827Z,24.45
2019-02-18T21:45:34.791Z,25.7
2019-02-18T21:51:29.786Z,30.73
2019-02-18T21:57:24.769Z,29.17
2019-02-18T22:03:19.774Z,30.03
2019-02-18T22:09:14.800Z,30.9
2019-02-18T22:15:09.812Z,30.25
2019-02-18T22:21:04.848Z,29.63
2019-02-18T22:26:59.826Z,33.03
2019-02-18T22:32:54.848Z,58.23
2019-02-18T22:38:49.802Z,293.18
2019-02-18T22:44:44.896Z,232.72
2019-02-18T22:50:39.906Z,139.34
2019-02-18T22:56:34.914Z,69.37
2019-02-18T23:02:29.888Z,40.57
2019-02-18T23:08:28.893Z,28.8
2019-02-18T23:14:19.809Z,54.37
2019-02-18T23:20:14.809Z,24.56
2019-02-18T23:26:09.814Z,27.55
2019-02-18T23:32:04.851Z,27.8
2019-02-18T23:37:59.824Z,31.29
2019-02-18T23:43:54.872Z,32.62
2019-02-18T23:49:49.854Z,33.94
2019-02-18T23:55:44.913Z,35.38
